sensor_id;sensor_type;location;lat;lon;timestamp;temperature;humidity
19920;DHT22;10122;50.074;19.920;2023-07-31T00:00:31;19.60;99.90
19920;DHT22;10122;50.074;19.920;2023-07-31T00:02:57;19.60;99.90
19920;DHT22;10122;50.074;19.920;2023-07-31T00:05:22;19.50;99.90
19920;DHT22;10122;50.074;19.920;2023-07-31T00:07:48;19.50;99.90
19920;DHT22;10122;50.074;19.920;2023-07-31T00:10:14;19.50;99.90
19920;DHT22;10122;50.074;19.920;2023-07-31T00:12:41;19.50;99.90
19920;DHT22;10122;50.074;19.920;2023-07-31T00:15:08;19.50;99.90
19920;DHT22;10122;50.074;19.920;2023-07-31T00:17:34;19.50;99.90
19920;DHT22;10122;50.074;19.920;2023-07-31T00:20:00;19.50;99.90
19920;DHT22;10122;50.074;19.920;2023-07-31T00:22:26;19.50;99.90
19920;DHT22;10122;50.074;19.920;2023-07-31T00:24:52;19.50;99.90
19920;DHT22;10122;50.074;19.920;2023-07-31T00:27:17;19.50;99.90
19920;DHT22;10122;50.074;19.920;2023-07-31T00:29:43;19.50;99.90
19920;DHT22;10122;50.074;19.920;2023-07-31T00:32:08;19.50;99.90
19920;DHT22;10122;50.074;19.920;2023-07-31T00:34:34;19.40;99.90
19920;DHT22;10122;50.074;19.920;2023-07-31T00:37:00;19.50;99.90
19920;DHT22;10122;50.074;19.920;2023-07-31T00:39:25;19.40;99.90
19920;DHT22;10122;50.074;19.920;2023-07-31T00:41:51;19.40;99.90
19920;DHT22;10122;50.074;19.920;2023-07-31T00:44:17;19.40;99.90
19920;DHT22;10122;50.074;19.920;2023-07-31T00:46:42;19.30;99.90
19920;DHT22;10122;50.074;19.920;2023-07-31T00:49:08;19.30;99.90
19920;DHT22;10122;50.074;19.920;2023-07-31T00:51:34;19.30;99.90
19920;DHT22;10122;50.074;19.920;2023-07-31T00:54:00;19.30;99.90
19920;DHT22;10122;50.074;19.920;2023-07-31T00:56:27;19.20;99.90
19920;DHT22;10122;50.074;19.920;2023-07-31T00:58:54;19.20;99.90
19920;DHT22;10122;50.074;19.920;2023-07-31T01:01:20;19.20;99.90
19920;DHT22;10122;50.074;19.920;2023-07-31T01:03:47;19.20;99.90
19920;DHT22;10122;50.074;19.920;2023-07-31T01:10:08;19.20;99.90
19920;DHT22;10122;50.074;19.920;2023-07-31T01:12:02;19.10;99.90
19920;DHT22;10122;50.074;19.920;2023-07-31T01:14:29;19.10;99.90
19920;DHT22;10122;50.074;19.920;2023-07-31T01:16:55;19.10;99.90
19920;DHT22;10122;50.074;19.920;2023-07-31T01:19:25;19.10;99.90
19920;DHT22;10122;50.074;19.920;2023-07-31T01:22:23;19.10;99.90
19920;DHT22;10122;50.074;19.920;2023-07-31T01:27:33;19.00;99.90
19920;DHT22;10122;50.074;19.920;2023-07-31T01:30:09;19.00;99.90
19920;DHT22;10122;50.074;19.920;2023-07-31T01:32:40;19.00;99.90
19920;DHT22;10122;50.074;19.920;2023-07-31T01:35:07;19.00;99.90
19920;DHT22;10122;50.074;19.920;2023-07-31T01:37:34;19.00;99.90
19920;DHT22;10122;50.074;19.920;2023-07-31T01:39:59;19.00;99.90
19920;DHT22;10122;50.074;19.920;2023-07-31T01:42:25;19.00;99.90
19920;DHT22;10122;50.074;19.920;2023-07-31T01:44:51;19.00;99.90
19920;DHT22;10122;50.074;19.920;2023-07-31T01:47:16;19.00;99.90
19920;DHT22;10122;50.074;19.920;2023-07-31T01:49:42;19.10;99.90
19920;DHT22;10122;50.074;19.920;2023-07-31T01:52:08;19.00;99.90
19920;DHT22;10122;50.074;19.920;2023-07-31T01:54:33;19.00;99.90
19920;DHT22;10122;50.074;19.920;2023-07-31T01:56:59;19.10;99.90
19920;DHT22;10122;50.074;19.920;2023-07-31T01:59:25;19.10;99.90
19920;DHT22;10122;50.074;19.920;2023-07-31T02:01:51;19.10;99.90
19920;DHT22;10122;50.074;19.920;2023-07-31T02:04:16;19.20;99.90
19920;DHT22;10122;50.074;19.920;2023-07-31T02:06:43;19.20;99.90
19920;DHT22;10122;50.074;19.920;2023-07-31T02:09:08;19.10;99.90
19920;DHT22;10122;50.074;19.920;2023-07-31T02:11:34;19.10;99.90
19920;DHT22;10122;50.074;19.920;2023-07-31T02:14:00;19.10;99.90
19920;DHT22;10122;50.074;19.920;2023-07-31T02:16:25;19.10;99.90
19920;DHT22;10122;50.074;19.920;2023-07-31T02:18:51;19.10;99.90
19920;DHT22;10122;50.074;19.920;2023-07-31T02:21:17;19.00;99.90
19920;DHT22;10122;50.074;19.920;2023-07-31T02:23:42;19.00;99.90
19920;DHT22;10122;50.074;19.920;2023-07-31T02:26:08;19.00;99.90
19920;DHT22;10122;50.074;19.920;2023-07-31T02:28:34;19.00;99.90
19920;DHT22;10122;50.074;19.920;2023-07-31T02:30:59;19.00;99.90
19920;DHT22;10122;50.074;19.920;2023-07-31T02:33:25;19.00;99.90
19920;DHT22;10122;50.074;19.920;2023-07-31T02:35:51;19.00;99.90
19920;DHT22;10122;50.074;19.920;2023-07-31T02:38:16;19.00;99.90
19920;DHT22;10122;50.074;19.920;2023-07-31T02:40:42;18.90;99.90
19920;DHT22;10122;50.074;19.920;2023-07-31T02:43:08;18.90;99.90
19920;DHT22;10122;50.074;19.920;2023-07-31T02:45:34;18.80;99.90
19920;DHT22;10122;50.074;19.920;2023-07-31T02:48:00;18.80;99.90
19920;DHT22;10122;50.074;19.920;2023-07-31T02:50:25;18.70;99.90
19920;DHT22;10122;50.074;19.920;2023-07-31T02:52:53;18.80;99.90
19920;DHT22;10122;50.074;19.920;2023-07-31T02:55:18;18.80;99.90
19920;DHT22;10122;50.074;19.920;2023-07-31T02:57:44;18.70;99.90
19920;DHT22;10122;50.074;19.920;2023-07-31T03:00:10;18.80;99.90
19920;DHT22;10122;50.074;19.920;2023-07-31T03:02:36;18.80;99.90
19920;DHT22;10122;50.074;19.920;2023-07-31T03:05:02;18.80;99.90
19920;DHT22;10122;50.074;19.920;2023-07-31T03:07:27;18.70;99.90
19920;DHT22;10122;50.074;19.920;2023-07-31T03:09:54;18.80;99.90
19920;DHT22;10122;50.074;19.920;2023-07-31T03:12:19;18.80;99.90
19920;DHT22;10122;50.074;19.920;2023-07-31T03:14:45;18.80;99.90
19920;DHT22;10122;50.074;19.920;2023-07-31T03:17:11;18.70;99.90
19920;DHT22;10122;50.074;19.920;2023-07-31T03:19:36;18.80;99.90
19920;DHT22;10122;50.074;19.920;2023-07-31T03:22:02;18.80;99.90
19920;DHT22;10122;50.074;19.920;2023-07-31T03:24:28;18.80;99.90
19920;DHT22;10122;50.074;19.920;2023-07-31T03:26:54;18.80;99.90
19920;DHT22;10122;50.074;19.920;2023-07-31T03:29:20;18.90;99.90
19920;DHT22;10122;50.074;19.920;2023-07-31T03:31:46;18.90;99.90
19920;DHT22;10122;50.074;19.920;2023-07-31T03:34:11;18.90;99.90
19920;DHT22;10122;50.074;19.920;2023-07-31T03:36:37;18.90;99.90
19920;DHT22;10122;50.074;19.920;2023-07-31T03:39:03;18.80;99.90
19920;DHT22;10122;50.074;19.920;2023-07-31T03:41:28;18.80;99.90
19920;DHT22;10122;50.074;19.920;2023-07-31T03:43:54;18.80;99.90
19920;DHT22;10122;50.074;19.920;2023-07-31T03:46:26;18.80;99.90
19920;DHT22;10122;50.074;19.920;2023-07-31T03:48:52;18.80;99.90
19920;DHT22;10122;50.074;19.920;2023-07-31T03:51:18;18.80;99.90
19920;DHT22;10122;50.074;19.920;2023-07-31T03:53:44;18.80;99.90
19920;DHT22;10122;50.074;19.920;2023-07-31T03:56:10;18.80;99.90
19920;DHT22;10122;50.074;19.920;2023-07-31T03:58:36;18.80;99.90
19920;DHT22;10122;50.074;19.920;2023-07-31T04:01:03;18.80;99.90
19920;DHT22;10122;50.074;19.920;2023-07-31T04:03:29;18.80;99.90
19920;DHT22;10122;50.074;19.920;2023-07-31T04:05:55;18.80;99.90
19920;DHT22;10122;50.074;19.920;2023-07-31T04:08:23;19.00;99.90
19920;DHT22;10122;50.074;19.920;2023-07-31T04:10:49;19.00;99.90
19920;DHT22;10122;50.074;19.920;2023-07-31T04:13:15;19.00;99.90
19920;DHT22;10122;50.074;19.920;2023-07-31T04:15:41;19.00;99.90
19920;DHT22;10122;50.074;19.920;2023-07-31T04:18:07;19.00;99.90
19920;DHT22;10122;50.074;19.920;2023-07-31T04:20:33;19.00;99.90
19920;DHT22;10122;50.074;19.920;2023-07-31T04:22:58;19.00;99.90
19920;DHT22;10122;50.074;19.920;2023-07-31T04:25:24;19.00;99.90
19920;DHT22;10122;50.074;19.920;2023-07-31T04:27:50;19.00;99.90
19920;DHT22;10122;50.074;19.920;2023-07-31T04:30:15;19.00;99.90
19920;DHT22;10122;50.074;19.920;2023-07-31T04:32:41;19.20;99.90
19920;DHT22;10122;50.074;19.920;2023-07-31T04:35:07;19.30;99.90
19920;DHT22;10122;50.074;19.920;2023-07-31T04:37:33;19.30;99.90
19920;DHT22;10122;50.074;19.920;2023-07-31T04:39:58;19.40;99.90
19920;DHT22;10122;50.074;19.920;2023-07-31T04:42:24;19.40;99.90
19920;DHT22;10122;50.074;19.920;2023-07-31T04:44:50;19.40;99.90
19920;DHT22;10122;50.074;19.920;2023-07-31T04:47:16;19.40;99.90
19920;DHT22;10122;50.074;19.920;2023-07-31T04:49:41;19.40;99.90
19920;DHT22;10122;50.074;19.920;2023-07-31T04:52:07;19.40;99.90
19920;DHT22;10122;50.074;19.920;2023-07-31T04:54:33;19.50;99.90
19920;DHT22;10122;50.074;19.920;2023-07-31T04:56:58;19.60;99.90
19920;DHT22;10122;50.074;19.920;2023-07-31T04:59:24;19.70;99.90
19920;DHT22;10122;50.074;19.920;2023-07-31T05:01:50;19.70;99.90
19920;DHT22;10122;50.074;19.920;2023-07-31T05:04:15;19.90;99.90
19920;DHT22;10122;50.074;19.920;2023-07-31T05:06:41;19.90;99.90
19920;DHT22;10122;50.074;19.920;2023-07-31T05:09:07;19.90;99.90
19920;DHT22;10122;50.074;19.920;2023-07-31T05:11:34;19.90;99.90
19920;DHT22;10122;50.074;19.920;2023-07-31T05:14:00;19.90;99.90
19920;DHT22;10122;50.074;19.920;2023-07-31T05:16:26;19.90;99.90
19920;DHT22;10122;50.074;19.920;2023-07-31T05:18:52;19.80;99.90
19920;DHT22;10122;50.074;19.920;2023-07-31T05:21:17;19.60;99.90
19920;DHT22;10122;50.074;19.920;2023-07-31T05:23:43;19.60;99.90
19920;DHT22;10122;50.074;19.920;2023-07-31T05:26:09;19.50;99.90
19920;DHT22;10122;50.074;19.920;2023-07-31T05:28:36;19.50;99.90
19920;DHT22;10122;50.074;19.920;2023-07-31T05:31:02;19.50;99.90
19920;DHT22;10122;50.074;19.920;2023-07-31T05:33:28;19.50;99.90
19920;DHT22;10122;50.074;19.920;2023-07-31T05:35:54;19.50;99.90
19920;DHT22;10122;50.074;19.920;2023-07-31T05:38:20;19.50;99.90
19920;DHT22;10122;50.074;19.920;2023-07-31T05:40:47;19.50;99.90
19920;DHT22;10122;50.074;19.920;2023-07-31T05:43:12;19.60;99.90
19920;DHT22;10122;50.074;19.920;2023-07-31T05:45:38;19.60;99.90
19920;DHT22;10122;50.074;19.920;2023-07-31T05:48:05;19.60;99.90
19920;DHT22;10122;50.074;19.920;2023-07-31T05:50:31;19.60;99.90
19920;DHT22;10122;50.074;19.920;2023-07-31T05:52:57;19.60;99.90
19920;DHT22;10122;50.074;19.920;2023-07-31T05:55:23;19.60;99.90
19920;DHT22;10122;50.074;19.920;2023-07-31T05:57:49;19.60;99.90
19920;DHT22;10122;50.074;19.920;2023-07-31T06:00:15;19.60;99.90
19920;DHT22;10122;50.074;19.920;2023-07-31T06:02:41;19.70;99.90
19920;DHT22;10122;50.074;19.920;2023-07-31T06:05:07;19.80;99.90
19920;DHT22;10122;50.074;19.920;2023-07-31T06:07:33;19.80;99.90
19920;DHT22;10122;50.074;19.920;2023-07-31T06:09:58;19.90;99.90
19920;DHT22;10122;50.074;19.920;2023-07-31T06:12:28;20.00;99.90
19920;DHT22;10122;50.074;19.920;2023-07-31T06:14:54;20.10;99.90
19920;DHT22;10122;50.074;19.920;2023-07-31T06:17:20;20.00;99.90
19920;DHT22;10122;50.074;19.920;2023-07-31T06:19:47;19.90;99.90
19920;DHT22;10122;50.074;19.920;2023-07-31T06:22:12;19.90;99.90
19920;DHT22;10122;50.074;19.920;2023-07-31T06:24:38;19.80;99.90
19920;DHT22;10122;50.074;19.920;2023-07-31T06:27:04;19.80;99.90
19920;DHT22;10122;50.074;19.920;2023-07-31T06:29:31;19.80;99.90
19920;DHT22;10122;50.074;19.920;2023-07-31T06:31:57;19.70;99.90
19920;DHT22;10122;50.074;19.920;2023-07-31T06:34:22;19.60;99.90
19920;DHT22;10122;50.074;19.920;2023-07-31T06:36:48;19.60;99.90
19920;DHT22;10122;50.074;19.920;2023-07-31T06:39:14;19.60;99.90
19920;DHT22;10122;50.074;19.920;2023-07-31T06:41:39;19.70;99.90
19920;DHT22;10122;50.074;19.920;2023-07-31T06:44:05;19.80;99.90
19920;DHT22;10122;50.074;19.920;2023-07-31T06:46:31;19.90;99.90
19920;DHT22;10122;50.074;19.920;2023-07-31T06:48:56;19.90;99.90
19920;DHT22;10122;50.074;19.920;2023-07-31T06:51:22;20.00;99.90
19920;DHT22;10122;50.074;19.920;2023-07-31T06:53:48;20.10;99.90
19920;DHT22;10122;50.074;19.920;2023-07-31T06:56:13;20.20;99.90
19920;DHT22;10122;50.074;19.920;2023-07-31T06:58:39;20.30;99.90
19920;DHT22;10122;50.074;19.920;2023-07-31T07:01:05;20.60;99.90
19920;DHT22;10122;50.074;19.920;2023-07-31T07:03:31;20.80;99.90
19920;DHT22;10122;50.074;19.920;2023-07-31T07:05:58;20.90;99.90
19920;DHT22;10122;50.074;19.920;2023-07-31T07:08:24;21.00;99.90
19920;DHT22;10122;50.074;19.920;2023-07-31T07:10:50;21.00;99.90
19920;DHT22;10122;50.074;19.920;2023-07-31T07:13:16;20.90;99.90
19920;DHT22;10122;50.074;19.920;2023-07-31T07:15:47;20.80;99.90
19920;DHT22;10122;50.074;19.920;2023-07-31T07:18:13;20.90;99.90
19920;DHT22;10122;50.074;19.920;2023-07-31T07:20:39;20.90;99.90
19920;DHT22;10122;50.074;19.920;2023-07-31T07:23:05;20.90;99.90
19920;DHT22;10122;50.074;19.920;2023-07-31T07:25:31;20.90;99.90
19920;DHT22;10122;50.074;19.920;2023-07-31T07:27:57;20.90;99.90
19920;DHT22;10122;50.074;19.920;2023-07-31T07:30:22;20.90;99.90
19920;DHT22;10122;50.074;19.920;2023-07-31T07:32:50;20.90;99.90
19920;DHT22;10122;50.074;19.920;2023-07-31T07:35:16;21.00;99.90
19920;DHT22;10122;50.074;19.920;2023-07-31T07:37:42;21.10;99.90
19920;DHT22;10122;50.074;19.920;2023-07-31T07:40:08;21.20;99.90
19920;DHT22;10122;50.074;19.920;2023-07-31T07:42:33;21.60;99.90
19920;DHT22;10122;50.074;19.920;2023-07-31T07:44:59;22.10;99.90
19920;DHT22;10122;50.074;19.920;2023-07-31T07:47:25;22.30;99.90
19920;DHT22;10122;50.074;19.920;2023-07-31T07:49:50;22.40;99.90
19920;DHT22;10122;50.074;19.920;2023-07-31T07:52:16;22.40;99.90
19920;DHT22;10122;50.074;19.920;2023-07-31T07:54:42;22.30;99.90
19920;DHT22;10122;50.074;19.920;2023-07-31T07:57:07;22.20;99.90
19920;DHT22;10122;50.074;19.920;2023-07-31T07:59:33;22.20;99.90
19920;DHT22;10122;50.074;19.920;2023-07-31T08:01:59;22.40;99.90
19920;DHT22;10122;50.074;19.920;2023-07-31T08:04:24;22.40;99.90
19920;DHT22;10122;50.074;19.920;2023-07-31T08:06:50;22.60;99.90
19920;DHT22;10122;50.074;19.920;2023-07-31T08:09:16;22.50;99.90
19920;DHT22;10122;50.074;19.920;2023-07-31T08:11:41;22.40;99.90
19920;DHT22;10122;50.074;19.920;2023-07-31T08:14:07;22.30;99.90
19920;DHT22;10122;50.074;19.920;2023-07-31T08:16:33;22.10;99.90
19920;DHT22;10122;50.074;19.920;2023-07-31T08:18:58;22.00;99.90
19920;DHT22;10122;50.074;19.920;2023-07-31T08:21:24;22.00;99.90
19920;DHT22;10122;50.074;19.920;2023-07-31T08:23:50;21.90;99.90
19920;DHT22;10122;50.074;19.920;2023-07-31T08:26:19;21.90;99.90
19920;DHT22;10122;50.074;19.920;2023-07-31T08:28:45;22.00;99.90
19920;DHT22;10122;50.074;19.920;2023-07-31T08:31:11;22.10;99.90
19920;DHT22;10122;50.074;19.920;2023-07-31T08:33:37;22.10;99.90
19920;DHT22;10122;50.074;19.920;2023-07-31T08:36:03;22.20;99.90
19920;DHT22;10122;50.074;19.920;2023-07-31T08:38:29;22.30;99.90
19920;DHT22;10122;50.074;19.920;2023-07-31T08:40:57;22.30;99.90
19920;DHT22;10122;50.074;19.920;2023-07-31T08:43:25;22.30;99.90
19920;DHT22;10122;50.074;19.920;2023-07-31T08:45:52;22.10;99.90
19920;DHT22;10122;50.074;19.920;2023-07-31T08:48:19;22.00;99.90
19920;DHT22;10122;50.074;19.920;2023-07-31T08:50:45;22.10;99.90
19920;DHT22;10122;50.074;19.920;2023-07-31T08:53:11;22.20;99.90
19920;DHT22;10122;50.074;19.920;2023-07-31T08:55:38;22.20;99.90
19920;DHT22;10122;50.074;19.920;2023-07-31T08:58:04;22.10;99.90
19920;DHT22;10122;50.074;19.920;2023-07-31T09:00:33;22.10;99.90
19920;DHT22;10122;50.074;19.920;2023-07-31T09:03:07;22.00;99.90
19920;DHT22;10122;50.074;19.920;2023-07-31T09:05:35;22.00;99.90
19920;DHT22;10122;50.074;19.920;2023-07-31T09:08:02;22.00;99.90
19920;DHT22;10122;50.074;19.920;2023-07-31T09:10:30;22.10;99.90
19920;DHT22;10122;50.074;19.920;2023-07-31T09:12:56;22.20;99.90
19920;DHT22;10122;50.074;19.920;2023-07-31T09:15:23;22.30;99.90
19920;DHT22;10122;50.074;19.920;2023-07-31T09:17:59;22.40;99.90
19920;DHT22;10122;50.074;19.920;2023-07-31T09:20:26;22.50;99.90
19920;DHT22;10122;50.074;19.920;2023-07-31T09:22:52;22.60;99.90
19920;DHT22;10122;50.074;19.920;2023-07-31T09:25:22;22.90;99.90
19920;DHT22;10122;50.074;19.920;2023-07-31T09:28:16;23.10;99.90
19920;DHT22;10122;50.074;19.920;2023-07-31T09:30:49;23.30;99.90
19920;DHT22;10122;50.074;19.920;2023-07-31T09:33:15;23.70;99.90
19920;DHT22;10122;50.074;19.920;2023-07-31T09:35:41;23.90;99.90
19920;DHT22;10122;50.074;19.920;2023-07-31T09:38:11;24.20;99.90
19920;DHT22;10122;50.074;19.920;2023-07-31T09:40:42;24.40;99.90
19920;DHT22;10122;50.074;19.920;2023-07-31T09:43:10;24.60;99.90
19920;DHT22;10122;50.074;19.920;2023-07-31T09:45:40;24.80;99.90
19920;DHT22;10122;50.074;19.920;2023-07-31T09:48:18;25.10;99.90
19920;DHT22;10122;50.074;19.920;2023-07-31T09:50:46;25.30;99.90
19920;DHT22;10122;50.074;19.920;2023-07-31T09:53:13;25.20;99.90
19920;DHT22;10122;50.074;19.920;2023-07-31T09:55:41;25.30;99.90
19920;DHT22;10122;50.074;19.920;2023-07-31T09:58:09;25.60;99.90
19920;DHT22;10122;50.074;19.920;2023-07-31T10:00:35;25.50;99.90
19920;DHT22;10122;50.074;19.920;2023-07-31T10:03:09;25.60;99.90
19920;DHT22;10122;50.074;19.920;2023-07-31T10:05:42;25.50;99.90
19920;DHT22;10122;50.074;19.920;2023-07-31T10:08:13;25.50;99.90
19920;DHT22;10122;50.074;19.920;2023-07-31T10:10:44;25.60;99.90
19920;DHT22;10122;50.074;19.920;2023-07-31T10:13:11;25.70;99.90
19920;DHT22;10122;50.074;19.920;2023-07-31T10:15:37;25.80;99.90
19920;DHT22;10122;50.074;19.920;2023-07-31T10:18:07;25.90;99.90
19920;DHT22;10122;50.074;19.920;2023-07-31T10:20:34;26.00;99.90
19920;DHT22;10122;50.074;19.920;2023-07-31T10:23:01;26.00;99.90
19920;DHT22;10122;50.074;19.920;2023-07-31T10:25:27;26.20;99.90
19920;DHT22;10122;50.074;19.920;2023-07-31T10:27:54;26.10;99.90
19920;DHT22;10122;50.074;19.920;2023-07-31T10:30:23;25.90;99.90
19920;DHT22;10122;50.074;19.920;2023-07-31T10:32:51;25.90;99.90
19920;DHT22;10122;50.074;19.920;2023-07-31T10:35:18;25.90;99.90
19920;DHT22;10122;50.074;19.920;2023-07-31T10:37:44;25.70;99.90
19920;DHT22;10122;50.074;19.920;2023-07-31T10:40:16;25.60;99.90
19920;DHT22;10122;50.074;19.920;2023-07-31T10:42:50;25.60;99.90
19920;DHT22;10122;50.074;19.920;2023-07-31T10:45:36;25.60;99.90
19920;DHT22;10122;50.074;19.920;2023-07-31T10:48:07;25.50;99.90
19920;DHT22;10122;50.074;19.920;2023-07-31T10:50:40;25.60;99.90
19920;DHT22;10122;50.074;19.920;2023-07-31T10:53:32;25.60;99.90
19920;DHT22;10122;50.074;19.920;2023-07-31T10:55:59;25.60;99.90
19920;DHT22;10122;50.074;19.920;2023-07-31T10:58:25;25.60;99.90
19920;DHT22;10122;50.074;19.920;2023-07-31T11:00:55;25.80;99.90
19920;DHT22;10122;50.074;19.920;2023-07-31T11:03:25;25.90;99.90
19920;DHT22;10122;50.074;19.920;2023-07-31T11:06:03;25.90;99.90
19920;DHT22;10122;50.074;19.920;2023-07-31T11:08:33;25.70;99.90
19920;DHT22;10122;50.074;19.920;2023-07-31T11:13:51;25.50;99.90
19920;DHT22;10122;50.074;19.920;2023-07-31T11:16:22;25.40;99.90
19920;DHT22;10122;50.074;19.920;2023-07-31T11:18:49;25.30;99.90
19920;DHT22;10122;50.074;19.920;2023-07-31T11:21:24;25.30;99.90
19920;DHT22;10122;50.074;19.920;2023-07-31T11:23:56;25.30;99.90
19920;DHT22;10122;50.074;19.920;2023-07-31T11:26:24;25.20;99.80
19920;DHT22;10122;50.074;19.920;2023-07-31T11:28:50;25.10;98.90
19920;DHT22;10122;50.074;19.920;2023-07-31T11:31:16;25.00;98.80
19920;DHT22;10122;50.074;19.920;2023-07-31T11:33:42;25.00;98.60
19920;DHT22;10122;50.074;19.920;2023-07-31T11:36:16;25.00;99.10
19920;DHT22;10122;50.074;19.920;2023-07-31T11:38:42;25.00;99.00
19920;DHT22;10122;50.074;19.920;2023-07-31T11:41:08;25.00;99.20
19920;DHT22;10122;50.074;19.920;2023-07-31T11:43:33;25.10;98.90
19920;DHT22;10122;50.074;19.920;2023-07-31T11:46:01;25.10;99.30
19920;DHT22;10122;50.074;19.920;2023-07-31T11:48:34;25.10;99.10
19920;DHT22;10122;50.074;19.920;2023-07-31T11:51:03;25.10;99.40
19920;DHT22;10122;50.074;19.920;2023-07-31T11:56:00;25.20;98.90
19920;DHT22;10122;50.074;19.920;2023-07-31T11:58:27;25.30;98.40
19920;DHT22;10122;50.074;19.920;2023-07-31T12:00:55;25.30;98.20
19920;DHT22;10122;50.074;19.920;2023-07-31T12:03:21;25.30;98.00
19920;DHT22;10122;50.074;19.920;2023-07-31T12:05:53;25.30;98.00
19920;DHT22;10122;50.074;19.920;2023-07-31T12:08:21;25.30;98.70
19920;DHT22;10122;50.074;19.920;2023-07-31T12:10:50;25.30;99.30
19920;DHT22;10122;50.074;19.920;2023-07-31T12:13:26;25.40;99.60
19920;DHT22;10122;50.074;19.920;2023-07-31T12:15:59;25.40;98.20
19920;DHT22;10122;50.074;19.920;2023-07-31T12:18:27;25.30;98.80
19920;DHT22;10122;50.074;19.920;2023-07-31T12:21:01;25.30;98.90
19920;DHT22;10122;50.074;19.920;2023-07-31T12:23:28;25.20;98.90
19920;DHT22;10122;50.074;19.920;2023-07-31T12:26:04;25.20;99.60
19920;DHT22;10122;50.074;19.920;2023-07-31T12:28:30;25.30;98.90
19920;DHT22;10122;50.074;19.920;2023-07-31T12:31:00;25.40;98.20
19920;DHT22;10122;50.074;19.920;2023-07-31T12:33:31;25.40;96.80
19920;DHT22;10122;50.074;19.920;2023-07-31T12:36:00;25.40;96.70
19920;DHT22;10122;50.074;19.920;2023-07-31T12:38:26;25.40;96.70
19920;DHT22;10122;50.074;19.920;2023-07-31T12:40:51;25.50;96.00
19920;DHT22;10122;50.074;19.920;2023-07-31T12:43:17;25.50;95.80
19920;DHT22;10122;50.074;19.920;2023-07-31T12:45:43;25.50;94.70
19920;DHT22;10122;50.074;19.920;2023-07-31T12:48:09;25.50;95.00
19920;DHT22;10122;50.074;19.920;2023-07-31T12:50:35;25.50;94.40
19920;DHT22;10122;50.074;19.920;2023-07-31T12:53:05;25.50;94.70
19920;DHT22;10122;50.074;19.920;2023-07-31T12:55:31;25.60;95.00
19920;DHT22;10122;50.074;19.920;2023-07-31T12:57:58;25.60;95.40
19920;DHT22;10122;50.074;19.920;2023-07-31T13:00:23;25.60;95.70
19920;DHT22;10122;50.074;19.920;2023-07-31T13:02:49;25.70;95.30
19920;DHT22;10122;50.074;19.920;2023-07-31T13:05:15;25.80;95.50
19920;DHT22;10122;50.074;19.920;2023-07-31T13:07:41;25.80;95.50
19920;DHT22;10122;50.074;19.920;2023-07-31T13:10:07;25.90;95.30
19920;DHT22;10122;50.074;19.920;2023-07-31T13:12:33;25.90;95.20
19920;DHT22;10122;50.074;19.920;2023-07-31T13:14:59;25.90;95.20
19920;DHT22;10122;50.074;19.920;2023-07-31T13:17:25;25.90;94.30
19920;DHT22;10122;50.074;19.920;2023-07-31T13:19:50;25.90;94.40
19920;DHT22;10122;50.074;19.920;2023-07-31T13:22:16;25.80;94.50
19920;DHT22;10122;50.074;19.920;2023-07-31T13:24:42;25.80;94.40
19920;DHT22;10122;50.074;19.920;2023-07-31T13:27:08;25.80;94.70
19920;DHT22;10122;50.074;19.920;2023-07-31T13:29:33;25.90;94.90
19920;DHT22;10122;50.074;19.920;2023-07-31T13:31:59;25.90;94.60
19920;DHT22;10122;50.074;19.920;2023-07-31T13:34:25;26.00;94.20
19920;DHT22;10122;50.074;19.920;2023-07-31T13:36:50;25.90;93.20
19920;DHT22;10122;50.074;19.920;2023-07-31T13:39:16;25.90;93.30
19920;DHT22;10122;50.074;19.920;2023-07-31T13:41:42;25.90;93.00
19920;DHT22;10122;50.074;19.920;2023-07-31T13:44:07;25.90;92.80
19920;DHT22;10122;50.074;19.920;2023-07-31T13:46:33;25.90;93.00
19920;DHT22;10122;50.074;19.920;2023-07-31T13:48:59;25.90;93.00
19920;DHT22;10122;50.074;19.920;2023-07-31T13:51:27;25.90;92.70
19920;DHT22;10122;50.074;19.920;2023-07-31T13:53:53;25.70;92.70
19920;DHT22;10122;50.074;19.920;2023-07-31T13:56:19;25.70;92.60
19920;DHT22;10122;50.074;19.920;2023-07-31T13:58:45;25.60;93.00
19920;DHT22;10122;50.074;19.920;2023-07-31T14:01:10;25.60;92.40
19920;DHT22;10122;50.074;19.920;2023-07-31T14:03:36;25.50;92.30
19920;DHT22;10122;50.074;19.920;2023-07-31T14:06:02;25.50;92.40
19920;DHT22;10122;50.074;19.920;2023-07-31T14:08:28;25.60;92.20
19920;DHT22;10122;50.074;19.920;2023-07-31T14:10:55;25.70;92.60
19920;DHT22;10122;50.074;19.920;2023-07-31T14:13:21;25.90;92.10
19920;DHT22;10122;50.074;19.920;2023-07-31T14:15:46;25.90;91.50
19920;DHT22;10122;50.074;19.920;2023-07-31T14:18:12;25.90;91.00
19920;DHT22;10122;50.074;19.920;2023-07-31T14:20:38;25.80;90.90
19920;DHT22;10122;50.074;19.920;2023-07-31T14:23:04;25.80;90.60
19920;DHT22;10122;50.074;19.920;2023-07-31T14:25:29;25.70;90.30
19920;DHT22;10122;50.074;19.920;2023-07-31T14:27:55;25.70;90.50
19920;DHT22;10122;50.074;19.920;2023-07-31T14:30:21;25.60;90.60
19920;DHT22;10122;50.074;19.920;2023-07-31T14:32:47;25.60;90.60
19920;DHT22;10122;50.074;19.920;2023-07-31T14:35:12;25.50;90.50
19920;DHT22;10122;50.074;19.920;2023-07-31T14:37:45;25.50;90.90
19920;DHT22;10122;50.074;19.920;2023-07-31T14:40:11;25.50;90.70
19920;DHT22;10122;50.074;19.920;2023-07-31T14:42:39;25.60;90.50
19920;DHT22;10122;50.074;19.920;2023-07-31T14:45:05;25.60;90.40
19920;DHT22;10122;50.074;19.920;2023-07-31T14:47:31;25.60;90.10
19920;DHT22;10122;50.074;19.920;2023-07-31T14:49:58;25.60;90.20
19920;DHT22;10122;50.074;19.920;2023-07-31T14:52:24;25.70;90.50
19920;DHT22;10122;50.074;19.920;2023-07-31T14:54:50;25.70;90.20
19920;DHT22;10122;50.074;19.920;2023-07-31T14:57:15;25.80;90.10
19920;DHT22;10122;50.074;19.920;2023-07-31T14:59:41;25.70;90.50
19920;DHT22;10122;50.074;19.920;2023-07-31T15:02:10;25.70;90.20
19920;DHT22;10122;50.074;19.920;2023-07-31T15:04:36;25.70;90.20
19920;DHT22;10122;50.074;19.920;2023-07-31T15:07:02;25.70;90.40
19920;DHT22;10122;50.074;19.920;2023-07-31T15:09:28;25.70;90.60
19920;DHT22;10122;50.074;19.920;2023-07-31T15:11:55;25.70;90.40
19920;DHT22;10122;50.074;19.920;2023-07-31T15:14:21;25.60;90.00
19920;DHT22;10122;50.074;19.920;2023-07-31T15:16:46;25.60;91.10
19920;DHT22;10122;50.074;19.920;2023-07-31T15:19:12;25.60;90.60
19920;DHT22;10122;50.074;19.920;2023-07-31T15:21:38;25.60;90.70
19920;DHT22;10122;50.074;19.920;2023-07-31T15:24:04;25.50;90.80